createdAt,value
2022-09-01T00:00:21.267Z,22.37
2022-09-01T00:02:48.811Z,24.40
2022-09-01T00:05:16.564Z,23.70
2022-09-01T00:07:43.721Z,26.63
2022-09-01T00:10:11.428Z,23.10
2022-09-01T00:12:39.498Z,20.23
2022-09-01T00:15:11.859Z,23.50
2022-09-01T00:17:38.997Z,21.87
2022-09-01T00:20:07.442Z,22.53
2022-09-01T00:22:34.406Z,22.03
2022-09-01T00:25:02.218Z,24.53
2022-09-01T00:27:30.851Z,24.37
2022-09-01T00:30:00.441Z,25.77
2022-09-01T00:32:29.356Z,25.60
2022-09-01T00:34:56.402Z,25.10
2022-09-01T00:37:23.426Z,24.53
2022-09-01T00:39:50.458Z,22.90
2022-09-01T00:42:17.731Z,20.47
2022-09-01T00:44:44.821Z,22.10
2022-09-01T00:47:15.047Z,21.70
2022-09-01T00:49:46.251Z,22.57
2022-09-01T00:52:23.881Z,21.83
2022-09-01T00:55:01.405Z,22.70
2022-09-01T00:57:28.769Z,22.10
2022-09-01T01:00:06.018Z,22.03
2022-09-01T01:02:33.198Z,28.57
2022-09-01T01:05:00.807Z,23.63
2022-09-01T01:07:29.296Z,22.77
2022-09-01T01:09:57.156Z,23.37
2022-09-01T01:12:24.236Z,23.87
2022-09-01T01:14:51.569Z,25.40
2022-09-01T01:17:21.181Z,35.03
2022-09-01T01:20:12.346Z,24.93
2022-09-01T01:23:03.486Z,25.90
2022-09-01T01:25:39.279Z,30.80
2022-09-01T01:28:18.618Z,28.87
2022-09-01T01:30:56.358Z,27.80
2022-09-01T01:33:33.961Z,31.17
2022-09-01T01:36:02.017Z,30.30
2022-09-01T01:38:30.622Z,27.70
2022-09-01T01:40:57.771Z,28.23
2022-09-01T01:43:27.787Z,27.50
2022-09-01T01:46:02.627Z,26.70
2022-09-01T01:48:34.714Z,28.90
2022-09-01T01:51:04.860Z,25.90
2022-09-01T01:53:33.685Z,28.20
2022-09-01T01:56:01.381Z,27.80
2022-09-01T01:58:33.056Z,25.73
2022-09-01T02:01:00.910Z,29.07
2022-09-01T02:03:38.584Z,27.50
2022-09-01T02:06:12.302Z,29.90
2022-09-01T02:08:41.338Z,29.90
2022-09-01T02:11:08.826Z,24.73
2022-09-01T02:13:36.088Z,28.10
2022-09-01T02:16:13.655Z,30.20
2022-09-01T02:18:48.298Z,30.60
2022-09-01T02:21:20.563Z,28.97
2022-09-01T02:24:02.243Z,31.87
2022-09-01T02:26:43.261Z,32.87
2022-09-01T02:29:19.461Z,27.63
2022-09-01T02:31:53.166Z,31.10
2022-09-01T02:34:24.365Z,34.40
2022-09-01T02:36:54.632Z,31.70
2022-09-01T02:39:28.575Z,32.73
2022-09-01T02:41:56.746Z,33.70
2022-09-01T02:44:23.855Z,31.17
2022-09-01T02:46:51.745Z,27.70
2022-09-01T02:49:26.271Z,30.70
2022-09-01T02:51:58.535Z,31.17
2022-09-01T02:54:27.955Z,30.77
2022-09-01T02:56:55.086Z,31.03
2022-09-01T02:59:26.462Z,29.93
2022-09-01T03:01:54.615Z,30.43
2022-09-01T03:04:24.252Z,31.63
2022-09-01T03:06:55.211Z,31.50
2022-09-01T03:09:23.203Z,29.67
2022-09-01T03:11:54.498Z,29.07
2022-09-01T03:14:24.414Z,32.50
2022-09-01T03:16:52.111Z,38.10
2022-09-01T03:19:19.563Z,29.77
2022-09-01T03:21:48.921Z,32.53
2022-09-01T03:24:18.220Z,35.33
2022-09-01T03:26:50.094Z,31.53
2022-09-01T03:29:19.168Z,37.27
2022-09-01T03:31:46.707Z,34.20
2022-09-01T03:34:16.606Z,30.37
2022-09-01T03:36:50.569Z,29.07
2022-09-01T03:39:19.695Z,31.40
2022-09-01T03:41:46.679Z,31.43
2022-09-01T03:44:16.733Z,29.23
2022-09-01T03:46:45.157Z,30.07
2022-09-01T03:49:15.816Z,34.60
2022-09-01T03:51:45.698Z,33.83
2022-09-01T03:54:13.954Z,27.30
2022-09-01T03:56:41.796Z,26.10
2022-09-01T03:59:17.465Z,29.03
2022-09-01T04:01:46.133Z,27.50
2022-09-01T04:04:15.086Z,26.33
2022-09-01T04:06:46.012Z,25.47
2022-09-01T04:09:13.741Z,29.00
2022-09-01T04:11:45.882Z,30.80
2022-09-01T04:14:14.199Z,27.00
2022-09-01T04:16:59.874Z,23.43
2022-09-01T04:19:27.818Z,24.17
2022-09-01T04:22:00.557Z,24.40
2022-09-01T04:24:32.076Z,30.70
2022-09-01T04:27:02.753Z,30.70
2022-09-01T04:29:32.148Z,30.43
2022-09-01T04:32:21.540Z,30.00
2022-09-01T04:34:48.654Z,31.70
2022-09-01T04:37:21.357Z,38.13
2022-09-01T04:39:56.448Z,33.30
2022-09-01T04:42:29.663Z,43.37
2022-09-01T04:44:57.916Z,38.93
2022-09-01T04:47:36.326Z,43.03
2022-09-01T04:50:14.493Z,52.07
2022-09-01T04:52:43.623Z,56.27
2022-09-01T04:55:18.302Z,63.70
2022-09-01T04:57:49.715Z,60.53
2022-09-01T05:00:24.169Z,60.23
2022-09-01T05:03:03.238Z,60.60
2022-09-01T05:05:46.278Z,45.27
2022-09-01T05:08:24.241Z,54.93
2022-09-01T05:10:56.973Z,99.20
2022-09-01T05:13:24.458Z,89.20
2022-09-01T05:16:06.549Z,83.47
2022-09-01T05:18:34.194Z,80.60
2022-09-01T05:21:12.039Z,86.30
2022-09-01T05:23:40.738Z,83.60
2022-09-01T05:26:18.697Z,87.23
2022-09-01T05:28:53.879Z,89.17
2022-09-01T05:31:23.169Z,100.03
2022-09-01T05:33:52.049Z,58.63
2022-09-01T05:36:23.548Z,93.53
2022-09-01T05:38:52.584Z,46.20
2022-09-01T05:41:22.289Z,55.00
2022-09-01T05:43:56.395Z,44.40
2022-09-01T05:46:28.554Z,49.93
2022-09-01T05:48:56.608Z,54.87
2022-09-01T05:51:43.888Z,46.70
2022-09-01T05:54:13.109Z,46.20
2022-09-01T05:56:44.461Z,50.47
2022-09-01T05:59:23.298Z,47.97
2022-09-01T06:01:53.777Z,48.33
2022-09-01T06:04:23.101Z,47.47
2022-09-01T06:07:08.443Z,51.07
2022-09-01T06:09:48.628Z,47.40
2022-09-01T06:12:18.622Z,44.87
2022-09-01T06:14:51.658Z,44.43
2022-09-01T06:17:23.448Z,38.30
2022-09-01T06:19:52.848Z,36.07
2022-09-01T06:22:20.861Z,34.23
2022-09-01T06:24:54.483Z,38.67
2022-09-01T06:27:22.307Z,34.40
2022-09-01T06:29:56.589Z,36.60
2022-09-01T06:32:26.251Z,37.97
2022-09-01T06:34:53.771Z,33.90
2022-09-01T06:37:23.104Z,27.77
2022-09-01T06:39:51.128Z,30.13
2022-09-01T06:42:19.596Z,26.53
2022-09-01T06:44:46.765Z,22.87
2022-09-01T06:47:15.700Z,24.63
2022-09-01T06:49:43.178Z,19.13
2022-09-01T06:52:11.995Z,18.53
2022-09-01T06:54:41.427Z,17.63
2022-09-01T06:59:55.625Z,16.93
2022-09-01T07:05:59.680Z,16.47
2022-09-01T07:08:12.383Z,20.53
2022-09-01T07:13:36.636Z,15.97
2022-09-01T07:18:59.079Z,14.10
2022-09-01T07:21:39.399Z,13.20
2022-09-01T07:24:11.606Z,13.83
2022-09-01T07:26:48.086Z,15.70
2022-09-01T07:29:16.906Z,13.17
2022-09-01T07:31:53.071Z,12.30
2022-09-01T07:34:41.396Z,11.87
2022-09-01T07:38:46.920Z,15.10
2022-09-01T07:45:47.234Z,10.30
2022-09-01T07:51:35.509Z,10.07
2022-09-01T07:53:55.727Z,9.63
2022-09-01T07:56:24.968Z,8.27
2022-09-01T07:58:53.456Z,10.47
2022-09-01T08:01:24.895Z,10.87
2022-09-01T08:04:04.664Z,10.07
2022-09-01T08:06:39.285Z,10.60
2022-09-01T08:09:11.594Z,12.57
2022-09-01T08:12:01.103Z,10.07
2022-09-01T08:14:26.678Z,10.57
2022-09-01T08:16:53.994Z,9.87
2022-09-01T08:19:21.962Z,8.70
2022-09-01T08:21:49.569Z,9.13
2022-09-01T08:24:16.803Z,8.37
2022-09-01T08:26:43.818Z,8.27
2022-09-01T08:29:10.827Z,7.43
2022-09-01T08:31:38.013Z,7.20
2022-09-01T08:34:05.696Z,7.13
2022-09-01T08:36:35.415Z,6.77
2022-09-01T08:39:02.622Z,5.33
2022-09-01T08:42:09.229Z,6.10
2022-09-01T08:45:16.733Z,5.33
2022-09-01T08:48:04.674Z,5.30
2022-09-01T08:50:34.901Z,5.67
2022-09-01T08:53:33.312Z,5.40
2022-09-01T08:56:00.983Z,5.93
2022-09-01T08:58:32.508Z,4.57
2022-09-01T09:01:05.494Z,5.50
2022-09-01T09:03:47.797Z,4.47
2022-09-01T09:06:46.477Z,4.70
2022-09-01T09:09:13.557Z,4.20
2022-09-01T09:12:19.404Z,5.80
2022-09-01T09:15:00.893Z,5.63
2022-09-01T09:17:38.278Z,4.70
2022-09-01T09:20:06.512Z,4.20
2022-09-01T09:22:33.943Z,4.23
2022-09-01T09:25:09.348Z,4.07
2022-09-01T09:27:43.922Z,4.27
2022-09-01T09:30:16.036Z,3.80
2022-09-01T09:33:46.489Z,3.70
2022-09-01T09:35:47.916Z,3.43
2022-09-01T09:38:21.699Z,3.70
2022-09-01T09:41:26.676Z,3.30
2022-09-01T09:44:17.733Z,3.40
2022-09-01T09:46:47.803Z,4.07
2022-09-01T09:49:36.685Z,3.40
2022-09-01T09:52:10.658Z,2.70
2022-09-01T09:55:00.894Z,4.27
2022-09-01T09:57:31.712Z,3.27
2022-09-01T10:00:26.106Z,3.13
2022-09-01T10:03:13.677Z,3.60
2022-09-01T10:05:53.809Z,2.83
2022-09-01T10:08:37.588Z,4.00
2022-09-01T10:11:08.139Z,4.30
2022-09-01T10:13:36.958Z,2.73
2022-09-01T10:16:25.104Z,2.77
2022-09-01T10:19:00.865Z,2.73
2022-09-01T10:21:45.380Z,3.63
2022-09-01T10:24:38.799Z,3.30
2022-09-01T10:27:20.117Z,5.13
2022-09-01T10:32:55.670Z,3.00
2022-09-01T10:35:40.598Z,5.03
2022-09-01T10:38:29.125Z,2.40
2022-09-01T10:41:10.129Z,2.77
2022-09-01T10:43:49.557Z,2.83
2022-09-01T10:46:38.585Z,2.33
2022-09-01T10:49:29.594Z,2.37
2022-09-01T10:52:03.650Z,2.53
2022-09-01T10:54:50.832Z,2.37
2022-09-01T10:59:30.400Z,2.00
2022-09-01T11:01:11.783Z,2.20
2022-09-01T11:03:51.888Z,2.93
2022-09-01T11:07:14.411Z,2.60
2022-09-01T11:10:11.076Z,2.63
2022-09-01T11:12:42.000Z,5.07
2022-09-01T11:15:17.007Z,2.30
2022-09-01T11:17:53.262Z,2.07
2022-09-01T11:20:30.332Z,1.90
2022-09-01T11:22:57.247Z,2.30
2022-09-01T11:26:20.476Z,2.20
2022-09-01T11:28:48.864Z,2.17
2022-09-01T11:31:42.312Z,2.50
2022-09-01T11:34:21.232Z,2.20
2022-09-01T11:37:00.480Z,2.53
2022-09-01T11:39:40.672Z,2.00
2022-09-01T11:42:29.121Z,2.00
2022-09-01T11:45:25.641Z,2.40
2022-09-01T11:48:02.474Z,2.17
2022-09-01T11:50:36.713Z,1.90
2022-09-01T11:53:15.577Z,2.67
2022-09-01T11:55:46.441Z,2.30
2022-09-01T11:58:29.152Z,2.30
2022-09-01T12:01:21.424Z,2.43
2022-09-01T12:03:53.001Z,2.60
2022-09-01T12:06:28.027Z,2.20
2022-09-01T12:09:02.440Z,2.00
2022-09-01T12:11:33.661Z,3.53
2022-09-01T12:14:11.366Z,1.97
2022-09-01T12:16:42.733Z,2.40
2022-09-01T12:19:29.481Z,3.33
2022-09-01T12:22:15.447Z,2.63
2022-09-01T12:24:55.083Z,2.40
2022-09-01T12:27:25.171Z,5.70
2022-09-01T12:29:52.821Z,2.33
2022-09-01T12:32:20.969Z,3.50
2022-09-01T12:35:11.053Z,2.20
2022-09-01T12:37:39.177Z,3.00
2022-09-01T12:40:07.551Z,3.83
2022-09-01T12:42:40.697Z,2.63
2022-09-01T12:45:10.841Z,2.43
2022-09-01T12:47:37.806Z,2.43
2022-09-01T12:50:13.885Z,2.50
2022-09-01T12:52:54.768Z,2.07
2022-09-01T12:58:27.243Z,2.13
2022-09-01T13:01:07.204Z,2.10
2022-09-01T13:03:43.087Z,1.90
2022-09-01T13:06:10.247Z,2.20
2022-09-01T13:08:37.755Z,2.33
2022-09-01T13:11:13.487Z,2.00
2022-09-01T13:13:40.508Z,2.00
2022-09-01T13:16:13.109Z,2.27
2022-09-01T13:21:33.849Z,4.83
2022-09-01T13:24:07.239Z,2.70
2022-09-01T13:26:34.600Z,2.07
2022-09-01T13:29:01.937Z,2.33
2022-09-01T13:31:30.674Z,1.90
2022-09-01T13:34:16.098Z,1.90
2022-09-01T13:36:51.699Z,2.40
2022-09-01T13:39:20.312Z,2.00
2022-09-01T13:41:49.525Z,2.00
2022-09-01T13:44:18.684Z,3.90
2022-09-01T13:49:43.512Z,3.43
2022-09-01T13:52:13.316Z,2.10
2022-09-01T13:54:40.619Z,3.70
2022-09-01T13:57:07.544Z,3.10
2022-09-01T13:59:35.136Z,2.77
2022-09-01T14:02:02.106Z,2.07
2022-09-01T14:04:29.850Z,2.57
2022-09-01T14:06:57.148Z,4.17
2022-09-01T14:09:25.881Z,2.10
2022-09-01T14:11:55.067Z,2.27
2022-09-01T14:14:23.238Z,2.10
2022-09-01T14:16:50.627Z,2.13
2022-09-01T14:19:18.062Z,2.10
2022-09-01T14:21:45.449Z,2.03
2022-09-01T14:24:13.666Z,1.83
2022-09-01T14:26:44.202Z,2.40
2022-09-01T14:29:11.517Z,2.20
2022-09-01T14:31:38.503Z,2.40
2022-09-01T14:34:06.873Z,1.80
2022-09-01T14:36:33.961Z,3.00
2022-09-01T14:39:01.067Z,3.00
2022-09-01T14:41:28.137Z,2.17
2022-09-01T14:44:03.288Z,2.80
2022-09-01T14:46:34.562Z,3.33
2022-09-01T14:49:04.687Z,2.10
2022-09-01T14:54:19.497Z,2.07
2022-09-01T14:59:37.017Z,4.27
2022-09-01T15:02:05.482Z,2.17
2022-09-01T15:04:32.495Z,2.57
2022-09-01T15:07:00.265Z,2.60
2022-09-01T15:09:28.551Z,2.30
2022-09-01T15:11:55.528Z,2.80
2022-09-01T15:14:22.811Z,2.50
2022-09-01T15:16:49.962Z,2.20
2022-09-01T15:19:17.582Z,2.97
2022-09-01T15:21:47.407Z,2.53
2022-09-01T15:24:14.716Z,2.27
2022-09-01T15:26:41.717Z,2.30
2022-09-01T15:29:12.138Z,2.50
2022-09-01T15:31:40.210Z,2.13
2022-09-01T15:34:07.885Z,2.10
2022-09-01T15:36:37.831Z,2.83
2022-09-01T15:39:04.936Z,3.23
2022-09-01T15:41:34.851Z,2.23
2022-09-01T15:44:08.175Z,2.73
2022-09-01T15:46:39.169Z,2.70
2022-09-01T15:49:09.924Z,3.23
2022-09-01T15:51:40.069Z,2.10
2022-09-01T15:54:13.674Z,3.10
2022-09-01T15:56:41.140Z,4.40
2022-09-01T15:59:09.126Z,2.83
2022-09-01T16:01:44.267Z,2.43
2022-09-01T16:04:21.748Z,2.20
2022-09-01T16:06:52.873Z,2.37
2022-09-01T16:09:21.358Z,2.40
2022-09-01T16:11:48.678Z,2.70
2022-09-01T16:14:16.402Z,2.77
2022-09-01T16:16:52.723Z,2.70
2022-09-01T16:19:45.489Z,3.10
2022-09-01T16:22:45.227Z,3.67
2022-09-01T16:25:30.048Z,3.47
2022-09-01T16:27:58.651Z,3.83
2022-09-01T16:30:30.158Z,2.50
2022-09-01T16:33:04.293Z,4.63
2022-09-01T16:35:45.071Z,2.73
2022-09-01T16:38:44.879Z,2.75
2022-09-01T16:41:44.742Z,2.63
2022-09-01T16:44:26.590Z,2.80
2022-09-01T16:47:34.859Z,2.77
2022-09-01T16:50:19.960Z,2.60
2022-09-01T16:53:14.434Z,6.20
2022-09-01T16:56:08.130Z,5.23
2022-09-01T16:58:44.031Z,2.60
2022-09-01T17:02:02.103Z,3.77
2022-09-01T17:04:38.138Z,2.70
2022-09-01T17:07:14.039Z,2.93
2022-09-01T17:10:13.981Z,5.10
2022-09-01T17:12:41.429Z,4.13
2022-09-01T17:15:18.349Z,3.43
2022-09-01T17:18:06.116Z,2.93
2022-09-01T17:20:37.173Z,3.00
2022-09-01T17:23:08.933Z,3.50
2022-09-01T17:25:54.299Z,2.23
2022-09-01T17:28:33.699Z,2.90
2022-09-01T17:31:22.201Z,3.33
2022-09-01T17:34:24.260Z,2.60
2022-09-01T17:37:21.979Z,4.10
2022-09-01T17:40:04.065Z,3.57
2022-09-01T17:42:55.849Z,4.40
2022-09-01T17:45:51.570Z,3.40
2022-09-01T17:48:27.302Z,4.80
2022-09-01T17:51:25.961Z,3.33
2022-09-01T17:54:04.960Z,4.20
2022-09-01T17:56:43.812Z,4.37
2022-09-01T17:59:51.736Z,3.87
2022-09-01T18:02:46.842Z,4.10
2022-09-01T18:05:23.816Z,3.37
2022-09-01T18:08:30.387Z,3.53
2022-09-01T18:11:23.897Z,4.50
2022-09-01T18:14:05.555Z,5.90
2022-09-01T18:16:46.077Z,4.30
2022-09-01T18:19:21.767Z,3.30
2022-09-01T18:21:59.838Z,3.70
2022-09-01T18:25:14.593Z,4.10
2022-09-01T18:27:47.019Z,3.60
2022-09-01T18:30:26.197Z,3.90
2022-09-01T18:33:27.318Z,3.23
2022-09-01T18:36:40.010Z,4.80
2022-09-01T18:39:18.395Z,3.80
2022-09-01T18:42:13.408Z,3.70
2022-09-01T18:45:38.820Z,5.30
2022-09-01T18:48:30.013Z,3.77
2022-09-01T18:51:32.178Z,5.80
2022-09-01T18:54:17.227Z,3.60
2022-09-01T18:56:53.308Z,3.97
2022-09-01T18:59:45.960Z,3.50
2022-09-01T19:02:34.649Z,5.57
2022-09-01T19:05:38.660Z,3.67
2022-09-01T19:08:31.063Z,4.17
2022-09-01T19:11:42.848Z,4.00
2022-09-01T19:15:16.840Z,3.73
2022-09-01T19:17:56.601Z,4.30
2022-09-01T19:20:53.465Z,7.17
2022-09-01T19:23:42.726Z,4.63
2022-09-01T19:26:21.287Z,4.50
2022-09-01T19:29:09.565Z,5.47
2022-09-01T19:31:45.596Z,4.10
2022-09-01T19:34:25.968Z,3.80
2022-09-01T19:37:01.614Z,4.90
2022-09-01T19:39:40.202Z,4.00
2022-09-01T19:42:34.171Z,6.80
2022-09-01T19:45:08.245Z,4.87
2022-09-01T19:47:56.365Z,3.50
2022-09-01T19:50:47.950Z,4.57
2022-09-01T19:53:44.730Z,3.37
2022-09-01T19:56:35.602Z,3.70
2022-09-01T19:59:15.169Z,4.93
2022-09-01T20:01:55.806Z,3.83
2022-09-01T20:04:40.995Z,3.60
2022-09-01T20:07:41.142Z,4.10
2022-09-01T20:10:20.618Z,4.23
2022-09-01T20:13:08.773Z,4.73
2022-09-01T20:15:44.789Z,3.93
2022-09-01T20:18:47.938Z,4.17
2022-09-01T20:21:20.804Z,3.87
2022-09-01T20:24:34.505Z,3.53
2022-09-01T20:27:32.226Z,3.83
2022-09-01T20:30:18.214Z,3.73
2022-09-01T20:33:20.310Z,3.73
2022-09-01T20:36:10.886Z,3.33
2022-09-01T20:39:30.822Z,3.60
2022-09-01T20:42:10.547Z,3.60
2022-09-01T20:44:54.656Z,3.40
2022-09-01T20:47:27.219Z,3.60
2022-09-01T20:49:54.766Z,3.70
2022-09-01T20:53:14.086Z,4.50
2022-09-01T20:56:17.685Z,3.57
2022-09-01T20:58:53.045Z,3.07
2022-09-01T21:01:38.710Z,3.30
2022-09-01T21:04:57.526Z,3.23
2022-09-01T21:07:59.400Z,4.00
2022-09-01T21:10:54.325Z,4.00
2022-09-01T21:13:56.558Z,3.80
2022-09-01T21:16:49.626Z,3.67
2022-09-01T21:19:48.690Z,4.33
2022-09-01T21:22:21.775Z,5.43
2022-09-01T21:24:49.686Z,3.63
2022-09-01T21:27:25.156Z,3.50
2022-09-01T21:30:10.073Z,4.93
2022-09-01T21:32:39.461Z,4.20
2022-09-01T21:35:11.926Z,3.90
2022-09-01T21:37:39.146Z,4.53
2022-09-01T21:40:08.120Z,3.90
2022-09-01T21:42:41.966Z,4.33
2022-09-01T21:45:13.265Z,5.17
2022-09-01T21:47:43.246Z,4.43
2022-09-01T21:50:10.684Z,4.53
2022-09-01T21:52:37.984Z,4.47
2022-09-01T21:55:07.024Z,4.10
2022-09-01T21:57:35.877Z,4.60
2022-09-01T22:00:10.770Z,4.20
2022-09-01T22:02:37.852Z,4.70
2022-09-01T22:05:06.622Z,5.57
2022-09-01T22:07:38.953Z,5.13
2022-09-01T22:10:09.724Z,8.80
2022-09-01T22:12:39.794Z,4.10
2022-09-01T22:15:11.408Z,3.70
2022-09-01T22:17:38.754Z,5.60
2022-09-01T22:20:09.319Z,4.90
2022-09-01T22:22:36.359Z,4.77
2022-09-01T22:25:10.228Z,4.90
2022-09-01T22:27:37.273Z,4.97
2022-09-01T22:30:06.748Z,5.53
2022-09-01T22:32:36.356Z,4.73
2022-09-01T22:35:10.613Z,5.40
2022-09-01T22:37:39.097Z,4.90
2022-09-01T22:40:08.587Z,5.27
2022-09-01T22:42:36.235Z,4.47
2022-09-01T22:45:05.939Z,4.87
2022-09-01T22:47:35.340Z,5.37
2022-09-01T22:50:09.055Z,5.17
2022-09-01T22:52:37.548Z,5.20
2022-09-01T22:55:06.648Z,4.77
2022-09-01T22:57:33.698Z,4.53
2022-09-01T23:00:01.308Z,5.07
2022-09-01T23:02:28.651Z,5.27
2022-09-01T23:04:55.717Z,4.43
2022-09-01T23:07:22.819Z,5.03
2022-09-01T23:09:49.813Z,6.10
2022-09-01T23:12:17.301Z,4.20
2022-09-01T23:14:44.383Z,5.40
2022-09-01T23:17:12.358Z,5.60
2022-09-01T23:19:39.378Z,5.17
2022-09-01T23:22:06.807Z,5.77
2022-09-01T23:24:33.874Z,6.63
2022-09-01T23:27:00.933Z,5.20
2022-09-01T23:29:27.973Z,5.50
2022-09-01T23:31:56.558Z,7.20
2022-09-01T23:34:23.753Z,6.10
2022-09-01T23:36:50.664Z,5.50
2022-09-01T23:39:17.900Z,6.87
2022-09-01T23:41:45.268Z,5.80
2022-09-01T23:44:13.159Z,6.33
2022-09-01T23:46:46.598Z,5.73
2022-09-01T23:49:16.694Z,6.00
2022-09-01T23:51:46.333Z,5.80
2022-09-01T23:54:14.825Z,6.03
2022-09-01T23:56:42.417Z,4.77
2022-09-01T23:59:10.194Z,5.40
